createdAt,value
2019-03-26T00:00:55.498Z,86
2019-03-26T00:01:57.820Z,86
2019-03-26T00:03:00.329Z,86
2019-03-26T00:04:07.094Z,86
2019-03-26T00:05:09.189Z,86
2019-03-26T00:06:11.275Z,86
2019-03-26T00:07:13.314Z,87
2019-03-26T00:08:15.751Z,86
2019-03-26T00:09:17.794Z,86
2019-03-26T00:10:20.197Z,86
2019-03-26T00:11:22.232Z,85
2019-03-26T00:12:24.257Z,86
2019-03-26T00:13:26.324Z,86
2019-03-26T00:14:28.718Z,86
2019-03-26T00:15:31.041Z,86
2019-03-26T00:16:33.479Z,86
2019-03-26T00:17:35.751Z,86
2019-03-26T00:18:37.790Z,86
2019-03-26T00:19:40.204Z,86
2019-03-26T00:20:42.318Z,86
2019-03-26T00:21:44.378Z,86
2019-03-26T00:22:46.440Z,86
2019-03-26T00:23:48.473Z,85
2019-03-26T00:24:50.504Z,85
2019-03-26T00:25:52.531Z,85
2019-03-26T00:26:54.529Z,85
2019-03-26T00:27:56.556Z,85
2019-03-26T00:28:58.579Z,85
2019-03-26T00:30:01.109Z,86
2019-03-26T00:31:03.456Z,85
2019-03-26T00:32:05.630Z,85
2019-03-26T00:33:07.650Z,85
2019-03-26T00:34:20.870Z,86
2019-03-26T00:35:23.029Z,86
2019-03-26T00:36:25.043Z,86
2019-03-26T00:37:30.380Z,87
2019-03-26T00:38:32.710Z,87
2019-03-26T00:39:34.892Z,87
2019-03-26T00:40:40.396Z,86
2019-03-26T00:41:43.040Z,86
2019-03-26T00:42:45.202Z,86
2019-03-26T00:43:47.268Z,87
2019-03-26T00:44:49.712Z,87
2019-03-26T00:45:51.790Z,87
2019-03-26T00:46:54.765Z,87
2019-03-26T00:47:57.237Z,86
2019-03-26T00:48:59.442Z,86
2019-03-26T00:50:01.829Z,86
2019-03-26T00:51:03.850Z,86
2019-03-26T00:52:05.862Z,86
2019-03-26T00:53:07.877Z,86
2019-03-26T00:54:09.989Z,87
2019-03-26T00:55:23.909Z,86
2019-03-26T00:56:26.147Z,86
2019-03-26T00:57:28.574Z,87
2019-03-26T00:58:30.885Z,87
2019-03-26T00:59:32.908Z,87
2019-03-26T01:00:35.044Z,87
2019-03-26T01:01:37.043Z,87
2019-03-26T01:02:39.049Z,87
2019-03-26T01:03:42.170Z,87
2019-03-26T01:04:44.187Z,87
2019-03-26T01:05:53.466Z,87
2019-03-26T01:07:00.851Z,87
2019-03-26T01:08:04.343Z,87
2019-03-26T01:09:06.353Z,87
2019-03-26T01:10:08.372Z,87
2019-03-26T01:11:10.673Z,87
2019-03-26T01:12:12.684Z,87
2019-03-26T01:13:15.084Z,87
2019-03-26T01:14:17.085Z,87
2019-03-26T01:15:19.474Z,87
2019-03-26T01:16:22.210Z,87
2019-03-26T01:17:24.726Z,87
2019-03-26T01:18:26.871Z,87
2019-03-26T01:19:29.677Z,87
2019-03-26T01:20:31.780Z,87
2019-03-26T01:21:33.889Z,87
2019-03-26T01:22:36.930Z,87
2019-03-26T01:23:39.018Z,87
2019-03-26T01:24:41.023Z,87
2019-03-26T01:25:43.144Z,87
2019-03-26T01:26:45.149Z,87
2019-03-26T01:27:47.152Z,87
2019-03-26T01:28:49.433Z,87
2019-03-26T01:29:51.483Z,87
2019-03-26T01:30:53.751Z,87
2019-03-26T01:31:56.090Z,87
2019-03-26T01:32:58.395Z,87
2019-03-26T01:34:00.550Z,87
2019-03-26T01:35:02.858Z,87
2019-03-26T01:36:04.909Z,87
2019-03-26T01:37:07.199Z,87
2019-03-26T01:38:09.209Z,87
2019-03-26T01:39:11.212Z,88
2019-03-26T01:40:13.774Z,87
2019-03-26T01:41:16.105Z,86
2019-03-26T01:42:19.224Z,87
2019-03-26T01:43:21.793Z,87
2019-03-26T01:44:23.846Z,88
2019-03-26T01:45:26.131Z,88
2019-03-26T01:46:28.191Z,88
2019-03-26T01:47:30.191Z,88
2019-03-26T01:48:32.264Z,88
2019-03-26T01:49:34.286Z,88
2019-03-26T01:50:36.307Z,88
2019-03-26T01:51:38.315Z,88
2019-03-26T01:52:40.344Z,88
2019-03-26T01:53:42.387Z,88
2019-03-26T01:54:44.493Z,88
2019-03-26T01:55:46.506Z,88
2019-03-26T01:56:48.510Z,87
2019-03-26T01:57:50.520Z,87
2019-03-26T01:58:52.536Z,87
2019-03-26T01:59:55.204Z,87
2019-03-26T02:00:57.205Z,87
2019-03-26T02:01:59.207Z,87
2019-03-26T02:03:05.772Z,87
2019-03-26T02:04:15.612Z,87
2019-03-26T02:05:24.384Z,87
2019-03-26T02:06:26.855Z,87
2019-03-26T02:07:28.869Z,87
2019-03-26T02:08:31.225Z,87
2019-03-26T02:09:35.241Z,87
2019-03-26T02:10:37.554Z,87
2019-03-26T02:11:39.550Z,87
2019-03-26T02:12:41.550Z,87
2019-03-26T02:13:44.250Z,87
2019-03-26T02:14:46.813Z,87
2019-03-26T02:15:49.208Z,87
2019-03-26T02:16:51.285Z,87
2019-03-26T02:17:53.530Z,87
2019-03-26T02:18:55.986Z,87
2019-03-26T02:19:59.411Z,87
2019-03-26T02:21:01.526Z,86
2019-03-26T02:22:03.915Z,86
2019-03-26T02:23:05.942Z,86
2019-03-26T02:24:08.468Z,86
2019-03-26T02:25:10.469Z,86
2019-03-26T02:26:12.472Z,86
2019-03-26T02:27:14.732Z,86
2019-03-26T02:28:16.986Z,86
2019-03-26T02:29:19.118Z,85
2019-03-26T02:30:21.518Z,86
2019-03-26T02:31:23.930Z,86
2019-03-26T02:32:26.948Z,85
2019-03-26T02:33:34.048Z,85
2019-03-26T02:34:41.684Z,85
2019-03-26T02:35:52.639Z,85
2019-03-26T02:36:57.953Z,85
2019-03-26T02:38:01.853Z,85
2019-03-26T02:39:04.555Z,85
2019-03-26T02:40:07.123Z,85
2019-03-26T02:41:09.246Z,85
2019-03-26T02:42:11.258Z,84
2019-03-26T02:43:13.839Z,84
2019-03-26T02:44:15.859Z,84
2019-03-26T02:45:18.172Z,84
2019-03-26T02:46:20.879Z,84
2019-03-26T02:47:23.455Z,84
2019-03-26T02:48:25.471Z,84
2019-03-26T02:49:28.166Z,84
2019-03-26T02:50:30.219Z,84
2019-03-26T02:51:32.792Z,84
2019-03-26T02:52:35.644Z,84
2019-03-26T02:53:37.933Z,84
2019-03-26T02:54:40.809Z,84
2019-03-26T02:55:42.841Z,83
2019-03-26T02:56:45.225Z,83
2019-03-26T02:57:47.554Z,83
2019-03-26T02:58:49.567Z,83
2019-03-26T02:59:52.143Z,83
2019-03-26T03:00:54.146Z,83
2019-03-26T03:01:56.440Z,83
2019-03-26T03:02:58.751Z,83
2019-03-26T03:04:00.783Z,83
2019-03-26T03:05:03.078Z,83
2019-03-26T03:06:06.348Z,83
2019-03-26T03:07:08.652Z,84
2019-03-26T03:08:10.747Z,84
2019-03-26T03:09:12.856Z,84
2019-03-26T03:10:15.904Z,84
2019-03-26T03:11:18.211Z,83
2019-03-26T03:12:20.974Z,83
2019-03-26T03:13:23.622Z,84
2019-03-26T03:14:25.910Z,84
2019-03-26T03:15:28.320Z,83
2019-03-26T03:16:30.347Z,83
2019-03-26T03:17:32.748Z,83
2019-03-26T03:18:35.434Z,83
2019-03-26T03:19:37.460Z,83
2019-03-26T03:20:39.936Z,83
2019-03-26T03:21:41.955Z,83
2019-03-26T03:22:44.349Z,83
2019-03-26T03:23:46.701Z,83
2019-03-26T03:24:48.708Z,83
2019-03-26T03:25:51.113Z,83
2019-03-26T03:26:53.519Z,83
2019-03-26T03:27:55.539Z,83
2019-03-26T03:28:57.957Z,83
2019-03-26T03:30:01.271Z,83
2019-03-26T03:31:04.096Z,83
2019-03-26T03:32:06.176Z,83
2019-03-26T03:33:08.512Z,83
2019-03-26T03:34:10.916Z,83
2019-03-26T03:35:12.985Z,84
2019-03-26T03:36:15.337Z,83
2019-03-26T03:37:17.343Z,83
2019-03-26T03:38:19.925Z,83
2019-03-26T03:39:22.318Z,84
2019-03-26T03:40:24.334Z,84
2019-03-26T03:41:26.338Z,83
2019-03-26T03:42:28.703Z,83
2019-03-26T03:43:31.394Z,84
2019-03-26T03:44:33.420Z,84
2019-03-26T03:45:36.115Z,84
2019-03-26T03:46:38.193Z,84
2019-03-26T03:47:40.585Z,84
2019-03-26T03:48:42.600Z,83
2019-03-26T03:49:44.924Z,84
2019-03-26T03:50:46.967Z,84
2019-03-26T03:51:48.973Z,83
2019-03-26T03:52:51.256Z,84
2019-03-26T03:53:53.546Z,84
2019-03-26T03:54:55.549Z,84
2019-03-26T03:55:57.840Z,84
2019-03-26T03:57:00.891Z,84
2019-03-26T03:58:04.036Z,84
2019-03-26T03:59:06.629Z,84
2019-03-26T04:00:08.642Z,84
2019-03-26T04:01:11.060Z,84
2019-03-26T04:02:13.560Z,84
2019-03-26T04:03:15.603Z,84
2019-03-26T04:04:18.018Z,84
2019-03-26T04:05:20.330Z,84
2019-03-26T04:06:22.406Z,84
2019-03-26T04:07:24.692Z,84
2019-03-26T04:08:27.078Z,84
2019-03-26T04:09:29.107Z,84
2019-03-26T04:10:31.417Z,84
2019-03-26T04:11:34.002Z,84
2019-03-26T04:12:36.403Z,84
2019-03-26T04:13:38.706Z,84
2019-03-26T04:14:40.990Z,84
2019-03-26T04:15:43.671Z,84
2019-03-26T04:16:46.361Z,84
2019-03-26T04:17:48.644Z,84
2019-03-26T04:18:50.680Z,84
2019-03-26T04:19:53.000Z,84
2019-03-26T04:20:55.020Z,84
2019-03-26T04:21:57.307Z,84
2019-03-26T04:22:59.625Z,85
2019-03-26T04:24:01.951Z,85
2019-03-26T04:25:04.257Z,84
2019-03-26T04:26:06.554Z,84
2019-03-26T04:27:09.241Z,85
2019-03-26T04:28:11.637Z,85
2019-03-26T04:29:13.642Z,85
2019-03-26T04:30:15.647Z,85
2019-03-26T04:31:17.688Z,85
2019-03-26T04:32:19.992Z,85
2019-03-26T04:33:22.041Z,84
2019-03-26T04:34:24.492Z,85
2019-03-26T04:35:26.959Z,85
2019-03-26T04:36:29.002Z,85
2019-03-26T04:37:31.021Z,85
2019-03-26T04:38:33.443Z,85
2019-03-26T04:39:35.788Z,85
2019-03-26T04:40:37.829Z,85
2019-03-26T04:41:40.158Z,85
2019-03-26T04:42:42.783Z,85
2019-03-26T04:43:44.830Z,85
2019-03-26T04:44:46.870Z,85
2019-03-26T04:45:49.286Z,84
2019-03-26T04:46:51.321Z,85
2019-03-26T04:47:53.334Z,85
2019-03-26T04:48:55.831Z,85
2019-03-26T04:49:57.860Z,85
2019-03-26T04:50:59.890Z,85
2019-03-26T04:52:01.919Z,85
2019-03-26T04:53:05.007Z,85
2019-03-26T04:54:07.037Z,85
2019-03-26T04:55:09.450Z,85
2019-03-26T04:56:11.468Z,85
2019-03-26T04:57:13.554Z,85
2019-03-26T04:58:15.595Z,85
2019-03-26T04:59:17.631Z,85
2019-03-26T05:00:19.671Z,84
2019-03-26T05:01:21.968Z,84
2019-03-26T05:02:24.008Z,84
2019-03-26T05:03:26.067Z,84
2019-03-26T05:04:28.095Z,84
2019-03-26T05:05:30.530Z,84
2019-03-26T05:06:39.197Z,84
2019-03-26T05:07:41.515Z,84
2019-03-26T05:08:43.541Z,84
2019-03-26T05:09:45.962Z,84
2019-03-26T05:10:50.586Z,84
2019-03-26T05:11:52.948Z,84
2019-03-26T05:12:55.068Z,84
2019-03-26T05:13:57.482Z,84
2019-03-26T05:14:59.509Z,83
2019-03-26T05:16:01.533Z,83
2019-03-26T05:17:03.562Z,83
2019-03-26T05:18:05.617Z,83
2019-03-26T05:19:08.031Z,83
2019-03-26T05:20:10.069Z,83
2019-03-26T05:21:12.085Z,83
2019-03-26T05:22:25.283Z,83
2019-03-26T05:23:27.313Z,83
2019-03-26T05:24:29.423Z,83
2019-03-26T05:25:31.473Z,83
2019-03-26T05:26:33.497Z,84
2019-03-26T05:27:46.982Z,84
2019-03-26T05:28:49.001Z,83
2019-03-26T05:29:51.040Z,83
2019-03-26T05:30:53.058Z,83
2019-03-26T05:31:55.167Z,83
2019-03-26T05:32:57.200Z,83
2019-03-26T05:33:59.219Z,83
2019-03-26T05:35:01.838Z,83
2019-03-26T05:36:04.160Z,83
2019-03-26T05:37:06.183Z,83
2019-03-26T05:38:08.502Z,84
2019-03-26T05:39:10.551Z,84
2019-03-26T05:40:12.568Z,84
2019-03-26T05:41:14.601Z,84
2019-03-26T05:42:16.640Z,83
2019-03-26T05:43:18.660Z,83
2019-03-26T05:44:20.698Z,83
2019-03-26T05:45:22.742Z,83
2019-03-26T05:46:24.755Z,83
2019-03-26T05:47:26.785Z,83
2019-03-26T05:48:29.096Z,83
2019-03-26T05:49:31.416Z,83
2019-03-26T05:50:33.452Z,83
2019-03-26T05:51:35.489Z,83
2019-03-26T05:52:37.516Z,83
2019-03-26T05:53:39.547Z,82
2019-03-26T05:54:41.589Z,82
2019-03-26T05:55:43.604Z,83
2019-03-26T05:56:45.635Z,83
2019-03-26T05:57:47.674Z,83
2019-03-26T05:58:49.994Z,82
2019-03-26T05:59:52.029Z,82
2019-03-26T06:00:54.056Z,83
2019-03-26T06:01:56.471Z,81
2019-03-26T06:02:58.531Z,81
2019-03-26T06:04:00.570Z,81
2019-03-26T06:05:02.923Z,80
2019-03-26T06:06:04.951Z,80
2019-03-26T06:07:07.669Z,80
2019-03-26T06:08:09.701Z,80
2019-03-26T06:09:11.743Z,80
2019-03-26T06:10:13.827Z,79
2019-03-26T06:11:16.162Z,79
2019-03-26T06:12:18.476Z,79
2019-03-26T06:13:20.782Z,79
2019-03-26T06:14:22.828Z,79
2019-03-26T06:15:24.871Z,79
2019-03-26T06:16:39.809Z,78
2019-03-26T06:17:41.843Z,79
2019-03-26T06:18:44.283Z,79
2019-03-26T06:19:46.298Z,79
2019-03-26T06:20:48.712Z,79
2019-03-26T06:21:50.755Z,79
2019-03-26T06:22:52.798Z,78
2019-03-26T06:23:55.205Z,78
2019-03-26T06:24:57.251Z,77
2019-03-26T06:25:59.306Z,78
2019-03-26T06:27:01.348Z,78
2019-03-26T06:28:03.420Z,78
2019-03-26T06:29:05.730Z,77
2019-03-26T06:30:08.155Z,77
2019-03-26T06:31:10.475Z,76
2019-03-26T06:32:12.498Z,77
2019-03-26T06:33:14.526Z,77
2019-03-26T06:34:16.556Z,76
2019-03-26T06:35:18.589Z,76
2019-03-26T06:36:20.612Z,76
2019-03-26T06:37:22.648Z,75
2019-03-26T06:38:24.683Z,76
2019-03-26T06:39:27.098Z,75
2019-03-26T06:40:29.138Z,76
2019-03-26T06:41:31.156Z,75
2019-03-26T06:42:33.188Z,75
2019-03-26T06:43:35.229Z,75
2019-03-26T06:44:37.329Z,74
2019-03-26T06:45:39.651Z,74
2019-03-26T06:46:41.982Z,74
2019-03-26T06:47:44.002Z,75
2019-03-26T06:48:46.026Z,74
2019-03-26T06:49:48.076Z,74
2019-03-26T06:50:50.385Z,74
2019-03-26T06:51:52.985Z,73
2019-03-26T06:52:55.026Z,73
2019-03-26T06:53:57.060Z,73
2019-03-26T06:54:59.090Z,73
2019-03-26T06:56:01.138Z,74
2019-03-26T06:57:03.164Z,74
2019-03-26T06:58:05.512Z,74
2019-03-26T06:59:08.108Z,73
2019-03-26T07:00:10.547Z,73
2019-03-26T07:01:12.580Z,73
2019-03-26T07:02:15.206Z,74
2019-03-26T07:03:17.234Z,74
2019-03-26T07:04:19.259Z,74
2019-03-26T07:05:21.295Z,73
2019-03-26T07:06:23.614Z,73
2019-03-26T07:07:32.802Z,73
2019-03-26T07:08:34.830Z,73
2019-03-26T07:09:36.893Z,73
2019-03-26T07:10:38.915Z,74
2019-03-26T07:11:40.990Z,74
2019-03-26T07:12:43.023Z,73
2019-03-26T07:13:45.043Z,74
2019-03-26T07:14:47.082Z,74
2019-03-26T07:15:49.115Z,73
2019-03-26T07:16:51.152Z,73
2019-03-26T07:17:53.718Z,73
2019-03-26T07:18:56.043Z,74
2019-03-26T07:19:58.081Z,73
2019-03-26T07:21:00.121Z,73
2019-03-26T07:22:02.156Z,74
2019-03-26T07:23:04.180Z,73
2019-03-26T07:24:06.225Z,74
2019-03-26T07:25:08.340Z,73
2019-03-26T07:26:10.387Z,74
2019-03-26T07:27:12.449Z,74
2019-03-26T07:28:14.767Z,73
2019-03-26T07:29:16.812Z,73
2019-03-26T07:30:18.851Z,73
2019-03-26T07:31:21.162Z,72
2019-03-26T07:32:23.207Z,72
2019-03-26T07:33:25.245Z,72
2019-03-26T07:34:27.271Z,71
2019-03-26T07:35:29.902Z,70
2019-03-26T07:36:32.291Z,71
2019-03-26T07:37:46.549Z,70
2019-03-26T07:38:48.591Z,70
2019-03-26T07:39:50.617Z,70
2019-03-26T07:40:52.668Z,69
2019-03-26T07:41:54.709Z,70
2019-03-26T07:42:56.857Z,69
2019-03-26T07:43:59.260Z,71
2019-03-26T07:45:01.330Z,69
2019-03-26T07:46:03.391Z,69
2019-03-26T07:47:05.414Z,69
2019-03-26T07:48:07.452Z,70
2019-03-26T07:49:09.497Z,69
2019-03-26T07:50:14.843Z,71
2019-03-26T07:51:16.869Z,70
2019-03-26T07:52:19.373Z,70
2019-03-26T07:53:21.403Z,70
2019-03-26T07:54:23.448Z,70
2019-03-26T07:55:25.477Z,71
2019-03-26T07:56:27.796Z,72
2019-03-26T07:57:29.825Z,72
2019-03-26T07:58:34.135Z,72
2019-03-26T07:59:36.162Z,73
2019-03-26T08:00:38.523Z,73
2019-03-26T08:01:40.563Z,73
2019-03-26T08:02:42.597Z,72
2019-03-26T08:03:44.619Z,73
2019-03-26T08:04:46.653Z,73
2019-03-26T08:05:48.997Z,73
2019-03-26T08:06:51.034Z,73
2019-03-26T08:07:59.850Z,73
2019-03-26T08:09:01.905Z,73
2019-03-26T08:10:03.944Z,74
2019-03-26T08:11:05.975Z,74
2019-03-26T08:12:08.018Z,74
2019-03-26T08:13:10.231Z,74
2019-03-26T08:14:12.911Z,74
2019-03-26T08:15:15.076Z,74
2019-03-26T08:16:17.465Z,74
2019-03-26T08:17:19.532Z,74
2019-03-26T08:18:22.011Z,75
2019-03-26T08:19:24.046Z,74
2019-03-26T08:20:26.086Z,74
2019-03-26T08:21:28.400Z,74
2019-03-26T08:22:30.440Z,73
2019-03-26T08:23:32.742Z,73
2019-03-26T08:24:34.773Z,74
2019-03-26T08:25:37.386Z,74
2019-03-26T08:26:39.423Z,73
2019-03-26T08:27:41.846Z,74
2019-03-26T08:28:43.887Z,75
2019-03-26T08:29:45.923Z,74
2019-03-26T08:30:51.080Z,74
2019-03-26T08:31:53.125Z,73
2019-03-26T08:32:55.142Z,74
2019-03-26T08:33:57.180Z,73
2019-03-26T08:34:59.503Z,73
2019-03-26T08:36:01.936Z,73
2019-03-26T08:37:04.005Z,74
2019-03-26T08:38:14.192Z,74
2019-03-26T08:39:16.504Z,73
2019-03-26T08:40:18.631Z,72
2019-03-26T08:41:20.666Z,73
2019-03-26T08:42:22.711Z,74
2019-03-26T08:43:24.757Z,73
2019-03-26T08:44:26.787Z,73
2019-03-26T08:45:28.831Z,72
2019-03-26T08:46:30.923Z,72
2019-03-26T08:47:32.964Z,72
2019-03-26T08:48:35.007Z,71
2019-03-26T08:49:37.064Z,71
2019-03-26T08:50:39.085Z,71
2019-03-26T08:51:41.172Z,70
2019-03-26T08:52:43.219Z,70
2019-03-26T08:53:45.241Z,70
2019-03-26T08:54:47.283Z,70
2019-03-26T08:55:49.614Z,70
2019-03-26T08:56:51.693Z,70
2019-03-26T08:57:53.727Z,70
2019-03-26T08:58:55.784Z,71
2019-03-26T08:59:57.816Z,70
2019-03-26T09:00:59.858Z,70
2019-03-26T09:02:01.896Z,70
2019-03-26T09:03:04.229Z,70
2019-03-26T09:04:06.302Z,70
2019-03-26T09:05:08.632Z,71
2019-03-26T09:06:10.670Z,71
2019-03-26T09:07:12.774Z,70
2019-03-26T09:08:26.583Z,69
2019-03-26T09:09:28.899Z,69
2019-03-26T09:10:31.224Z,69
2019-03-26T09:11:33.555Z,69
2019-03-26T09:12:35.589Z,70
2019-03-26T09:13:37.614Z,70
2019-03-26T09:14:39.672Z,70
2019-03-26T09:15:41.692Z,69
2019-03-26T09:16:43.753Z,69
2019-03-26T09:17:45.835Z,70
2019-03-26T09:18:47.867Z,69
2019-03-26T09:19:49.918Z,69
2019-03-26T09:20:51.948Z,70
2019-03-26T09:21:53.983Z,69
2019-03-26T09:22:56.017Z,70
2019-03-26T09:23:58.071Z,69
2019-03-26T09:25:00.271Z,69
2019-03-26T09:26:02.672Z,68
2019-03-26T09:27:04.777Z,69
2019-03-26T09:28:06.824Z,69
2019-03-26T09:29:08.892Z,68
2019-03-26T09:30:11.323Z,69
2019-03-26T09:31:13.369Z,68
2019-03-26T09:32:15.395Z,67
2019-03-26T09:33:17.722Z,69
2019-03-26T09:34:19.876Z,69
2019-03-26T09:35:21.916Z,68
2019-03-26T09:36:23.968Z,68
2019-03-26T09:37:26.334Z,69
2019-03-26T09:38:40.178Z,69
2019-03-26T09:39:42.235Z,69
2019-03-26T09:40:44.285Z,68
2019-03-26T09:41:46.613Z,68
2019-03-26T09:42:49.057Z,68
2019-03-26T09:43:51.093Z,68
2019-03-26T09:44:56.320Z,68
2019-03-26T09:45:58.982Z,68
2019-03-26T09:47:01.311Z,68
2019-03-26T09:48:18.473Z,68
2019-03-26T09:49:20.520Z,68
2019-03-26T09:50:22.557Z,68
2019-03-26T09:51:24.586Z,68
2019-03-26T09:52:26.647Z,68
2019-03-26T09:53:28.683Z,68
2019-03-26T09:54:30.721Z,67
2019-03-26T09:55:32.758Z,67
2019-03-26T09:56:34.819Z,67
2019-03-26T09:57:36.864Z,67
2019-03-26T09:58:39.191Z,67
2019-03-26T09:59:41.226Z,66
2019-03-26T10:00:43.919Z,64
2019-03-26T10:01:46.398Z,63
2019-03-26T10:02:48.719Z,64
2019-03-26T10:03:50.769Z,63
2019-03-26T10:04:52.817Z,63
2019-03-26T10:05:54.848Z,62
2019-03-26T10:06:56.888Z,63
2019-03-26T10:07:58.916Z,64
2019-03-26T10:09:00.953Z,62
2019-03-26T10:10:03.010Z,62
2019-03-26T10:11:05.060Z,62
2019-03-26T10:12:07.087Z,63
2019-03-26T10:13:09.444Z,63
2019-03-26T10:14:11.566Z,62
2019-03-26T10:15:13.597Z,63
2019-03-26T10:16:15.726Z,62
2019-03-26T10:17:17.753Z,64
2019-03-26T10:18:24.182Z,63
2019-03-26T10:19:26.228Z,64
2019-03-26T10:20:28.317Z,64
2019-03-26T10:21:30.870Z,66
2019-03-26T10:22:32.920Z,69
2019-03-26T10:23:34.950Z,71
2019-03-26T10:24:37.001Z,72
2019-03-26T10:25:39.218Z,74
2019-03-26T10:26:41.304Z,72
2019-03-26T10:27:43.351Z,72
2019-03-26T10:28:45.417Z,73
2019-03-26T10:29:47.752Z,72
2019-03-26T10:30:49.841Z,72
2019-03-26T10:31:51.883Z,72
2019-03-26T10:32:53.925Z,72
2019-03-26T10:33:56.273Z,71
2019-03-26T10:34:58.395Z,72
2019-03-26T10:36:01.116Z,72
2019-03-26T10:37:03.159Z,72
2019-03-26T10:38:05.252Z,70
2019-03-26T10:39:07.295Z,71
2019-03-26T10:40:09.726Z,70
2019-03-26T10:41:11.787Z,71
2019-03-26T10:42:13.928Z,70
2019-03-26T10:43:16.002Z,68
2019-03-26T10:44:18.071Z,69
2019-03-26T10:45:20.126Z,70
2019-03-26T10:46:23.188Z,67
2019-03-26T10:47:26.152Z,67
2019-03-26T10:48:28.191Z,67
2019-03-26T10:49:34.029Z,67
2019-03-26T10:50:36.387Z,67
2019-03-26T10:51:38.441Z,66
2019-03-26T10:52:40.477Z,66
2019-03-26T10:53:42.817Z,65
2019-03-26T10:54:44.866Z,64
2019-03-26T10:55:47.007Z,64
2019-03-26T10:56:49.445Z,63
2019-03-26T10:57:51.497Z,65
2019-03-26T10:58:53.647Z,64
2019-03-26T10:59:55.691Z,63
2019-03-26T11:00:57.724Z,64
2019-03-26T11:02:01.878Z,63
2019-03-26T11:03:04.001Z,64
2019-03-26T11:04:08.646Z,63
2019-03-26T11:05:10.703Z,62
2019-03-26T11:06:12.737Z,63
2019-03-26T11:07:14.800Z,63
2019-03-26T11:08:16.861Z,64
2019-03-26T11:09:28.187Z,63
2019-03-26T11:10:30.279Z,62
2019-03-26T11:11:32.307Z,61
2019-03-26T11:12:34.359Z,62
2019-03-26T11:13:36.429Z,61
2019-03-26T11:14:38.467Z,61
2019-03-26T11:15:41.165Z,63
2019-03-26T11:16:43.517Z,62
2019-03-26T11:17:45.564Z,62
2019-03-26T11:18:47.881Z,60
2019-03-26T11:19:49.935Z,61
2019-03-26T11:21:04.171Z,61
2019-03-26T11:22:06.218Z,60
2019-03-26T11:23:08.262Z,61
2019-03-26T11:24:10.293Z,58
2019-03-26T11:25:13.574Z,59
2019-03-26T11:26:15.616Z,58
2019-03-26T11:27:18.043Z,59
2019-03-26T11:28:20.644Z,57
2019-03-26T11:29:23.079Z,55
2019-03-26T11:30:25.115Z,53
2019-03-26T11:31:30.705Z,54
2019-03-26T11:32:32.755Z,54
2019-03-26T11:33:34.787Z,54
2019-03-26T11:34:37.496Z,54
2019-03-26T11:35:39.534Z,54
2019-03-26T11:36:41.600Z,54
2019-03-26T11:37:43.684Z,53
2019-03-26T11:38:45.724Z,53
2019-03-26T11:39:47.832Z,54
2019-03-26T11:40:50.147Z,54
2019-03-26T11:41:52.198Z,54
2019-03-26T11:42:54.235Z,53
2019-03-26T11:43:56.267Z,53
2019-03-26T11:45:00.486Z,54
2019-03-26T11:46:02.538Z,53
2019-03-26T11:47:04.585Z,53
2019-03-26T11:48:06.626Z,52
2019-03-26T11:49:09.050Z,53
2019-03-26T11:50:11.371Z,54
2019-03-26T11:51:13.414Z,54
2019-03-26T11:52:15.460Z,53
2019-03-26T11:53:17.486Z,53
2019-03-26T11:54:19.524Z,54
2019-03-26T11:55:22.843Z,54
2019-03-26T11:56:25.480Z,53
2019-03-26T11:57:27.522Z,53
2019-03-26T11:58:32.148Z,54
2019-03-26T11:59:34.626Z,54
2019-03-26T12:00:36.669Z,53
2019-03-26T12:01:39.001Z,53
2019-03-26T12:02:41.408Z,53
2019-03-26T12:03:43.556Z,53
2019-03-26T12:04:45.597Z,53
2019-03-26T12:05:47.634Z,53
2019-03-26T12:06:49.683Z,53
2019-03-26T12:07:51.727Z,52
2019-03-26T12:08:53.764Z,52
2019-03-26T12:09:55.896Z,52
2019-03-26T12:10:57.953Z,52
2019-03-26T12:11:59.990Z,52
2019-03-26T12:13:02.031Z,52
2019-03-26T12:14:04.090Z,52
2019-03-26T12:15:06.120Z,53
2019-03-26T12:16:08.161Z,52
2019-03-26T12:17:10.482Z,52
2019-03-26T12:18:12.520Z,53
2019-03-26T12:19:14.556Z,52
2019-03-26T12:20:16.889Z,52
2019-03-26T12:21:18.966Z,53
2019-03-26T12:22:21.018Z,52
2019-03-26T12:23:23.063Z,53
2019-03-26T12:24:25.106Z,52
2019-03-26T12:25:27.208Z,51
2019-03-26T12:26:29.269Z,51
2019-03-26T12:27:31.701Z,51
2019-03-26T12:28:33.737Z,51
2019-03-26T12:29:36.160Z,50
2019-03-26T12:30:38.507Z,51
2019-03-26T12:31:40.552Z,51
2019-03-26T12:32:42.874Z,52
2019-03-26T12:33:45.291Z,51
2019-03-26T12:34:47.345Z,51
2019-03-26T12:35:49.662Z,51
2019-03-26T12:36:51.707Z,51
2019-03-26T12:37:53.755Z,52
2019-03-26T12:38:55.784Z,52
2019-03-26T12:40:01.741Z,51
2019-03-26T12:41:03.821Z,51
2019-03-26T12:42:05.867Z,51
2019-03-26T12:43:07.896Z,52
2019-03-26T12:44:10.233Z,51
2019-03-26T12:45:12.286Z,51
2019-03-26T12:46:14.615Z,52
2019-03-26T12:47:17.339Z,52
2019-03-26T12:48:19.373Z,52
2019-03-26T12:49:21.411Z,52
2019-03-26T12:50:23.456Z,52
2019-03-26T12:51:25.499Z,52
2019-03-26T12:52:27.884Z,53
2019-03-26T12:53:29.931Z,51
2019-03-26T12:54:32.054Z,52
2019-03-26T12:55:34.090Z,52
2019-03-26T12:56:36.413Z,51
2019-03-26T12:57:38.735Z,52
2019-03-26T12:58:40.772Z,52
2019-03-26T12:59:43.105Z,52
2019-03-26T13:00:45.226Z,51
2019-03-26T13:01:47.258Z,52
2019-03-26T13:02:49.401Z,51
2019-03-26T13:03:51.429Z,52
2019-03-26T13:04:53.760Z,50
2019-03-26T13:05:55.914Z,51
2019-03-26T13:06:57.962Z,51
2019-03-26T13:08:00.006Z,51
2019-03-26T13:09:02.033Z,51
2019-03-26T13:10:15.252Z,51
2019-03-26T13:11:18.133Z,51
2019-03-26T13:12:20.165Z,53
2019-03-26T13:13:22.213Z,52
2019-03-26T13:14:24.533Z,52
2019-03-26T13:15:26.578Z,52
2019-03-26T13:16:28.901Z,52
2019-03-26T13:17:30.956Z,52
2019-03-26T13:18:33.278Z,52
2019-03-26T13:19:35.318Z,52
2019-03-26T13:20:37.653Z,52
2019-03-26T13:21:39.686Z,53
2019-03-26T13:22:41.731Z,53
2019-03-26T13:23:43.776Z,53
2019-03-26T13:24:45.831Z,53
2019-03-26T13:25:47.891Z,53
2019-03-26T13:26:50.073Z,53
2019-03-26T13:27:52.136Z,53
2019-03-26T13:28:54.209Z,53
2019-03-26T13:29:56.261Z,53
2019-03-26T13:30:58.294Z,53
2019-03-26T13:32:00.327Z,53
2019-03-26T13:33:02.665Z,53
2019-03-26T13:34:05.279Z,53
2019-03-26T13:35:07.698Z,53
2019-03-26T13:36:09.743Z,53
2019-03-26T13:37:11.854Z,52
2019-03-26T13:38:13.897Z,54
2019-03-26T13:39:15.946Z,53
2019-03-26T13:40:28.639Z,52
2019-03-26T13:41:30.667Z,53
2019-03-26T13:42:33.009Z,53
2019-03-26T13:43:35.060Z,53
2019-03-26T13:44:37.105Z,53
2019-03-26T13:45:39.150Z,53
2019-03-26T13:46:41.282Z,54
2019-03-26T13:47:43.319Z,54
2019-03-26T13:48:45.662Z,53
2019-03-26T13:49:48.395Z,54
2019-03-26T13:50:50.531Z,54
2019-03-26T13:51:52.964Z,54
2019-03-26T13:52:55.003Z,55
2019-03-26T13:53:57.060Z,55
2019-03-26T13:54:59.152Z,54
2019-03-26T13:56:01.201Z,55
2019-03-26T13:57:03.629Z,55
2019-03-26T13:58:05.665Z,55
2019-03-26T13:59:07.770Z,54
2019-03-26T14:00:09.818Z,54
2019-03-26T14:01:11.857Z,55
2019-03-26T14:02:13.894Z,54
2019-03-26T14:03:16.318Z,54
2019-03-26T14:04:18.355Z,53
2019-03-26T14:05:20.692Z,54
2019-03-26T14:06:22.746Z,54
2019-03-26T14:07:24.783Z,53
2019-03-26T14:08:26.841Z,54
2019-03-26T14:09:28.913Z,52
2019-03-26T14:10:42.273Z,53
2019-03-26T14:11:44.333Z,53
2019-03-26T14:12:46.445Z,53
2019-03-26T14:13:48.494Z,53
2019-03-26T14:14:50.876Z,53
2019-03-26T14:15:52.939Z,53
2019-03-26T14:16:54.976Z,53
2019-03-26T14:17:57.009Z,53
2019-03-26T14:18:59.058Z,52
2019-03-26T14:20:01.153Z,52
2019-03-26T14:21:03.585Z,51
2019-03-26T14:22:05.915Z,51
2019-03-26T14:23:08.263Z,52
2019-03-26T14:24:14.260Z,51
2019-03-26T14:25:16.695Z,52
2019-03-26T14:26:18.744Z,52
2019-03-26T14:27:20.778Z,51
2019-03-26T14:28:22.847Z,51
2019-03-26T14:29:25.760Z,51
2019-03-26T14:30:28.099Z,51
2019-03-26T14:31:30.145Z,52
2019-03-26T14:32:32.591Z,51
2019-03-26T14:33:34.627Z,51
2019-03-26T14:34:36.674Z,51
2019-03-26T14:35:38.716Z,52
2019-03-26T14:36:40.757Z,52
2019-03-26T14:37:52.458Z,52
2019-03-26T14:38:54.512Z,52
2019-03-26T14:39:56.651Z,52
2019-03-26T14:40:58.707Z,52
2019-03-26T14:42:01.041Z,52
2019-03-26T14:43:03.079Z,52
2019-03-26T14:44:05.209Z,52
2019-03-26T14:45:07.249Z,52
2019-03-26T14:46:09.334Z,52
2019-03-26T14:47:11.396Z,53
2019-03-26T14:48:13.536Z,52
2019-03-26T14:49:15.565Z,52
2019-03-26T14:50:17.890Z,52
2019-03-26T14:51:23.596Z,53
2019-03-26T14:52:25.636Z,52